sensor_id;sensor_type;location;lat;lon;timestamp;P1;durP1;ratioP1;P2;durP2;ratioP2
37275;SDS011;23166;51.150;21.620;2022-12-10T00:01:08;16.50;;;7.20;;
37275;SDS011;23166;51.150;21.620;2022-12-10T00:03:36;9.63;;;6.07;;
37275;SDS011;23166;51.150;21.620;2022-12-10T00:06:04;18.50;;;7.22;;
37275;SDS011;23166;51.150;21.620;2022-12-10T00:08:33;15.20;;;7.60;;
37275;SDS011;23166;51.150;21.620;2022-12-10T00:11:02;17.90;;;6.00;;
37275;SDS011;23166;51.150;21.620;2022-12-10T00:13:29;10.67;;;4.40;;
37275;SDS011;23166;51.150;21.620;2022-12-10T00:15:55;17.15;;;7.53;;
37275;SDS011;23166;51.150;21.620;2022-12-10T00:18:28;16.47;;;7.03;;
37275;SDS011;23166;51.150;21.620;2022-12-10T00:20:54;14.38;;;7.70;;
37275;SDS011;23166;51.150;21.620;2022-12-10T00:23:21;6.42;;;4.65;;
37275;SDS011;23166;51.150;21.620;2022-12-10T00:25:48;12.82;;;6.53;;
37275;SDS011;23166;51.150;21.620;2022-12-10T00:28:14;7.35;;;5.50;;
37275;SDS011;23166;51.150;21.620;2022-12-10T00:30:40;8.68;;;6.00;;
37275;SDS011;23166;51.150;21.620;2022-12-10T00:33:07;14.13;;;5.42;;
37275;SDS011;23166;51.150;21.620;2022-12-10T00:35:36;10.53;;;6.58;;
37275;SDS011;23166;51.150;21.620;2022-12-10T00:38:03;13.63;;;6.17;;
37275;SDS011;23166;51.150;21.620;2022-12-10T00:40:29;9.08;;;5.30;;
37275;SDS011;23166;51.150;21.620;2022-12-10T00:42:56;8.68;;;5.12;;
37275;SDS011;23166;51.150;21.620;2022-12-10T00:45:22;16.05;;;8.13;;
37275;SDS011;23166;51.150;21.620;2022-12-10T00:47:48;6.87;;;2.83;;
37275;SDS011;23166;51.150;21.620;2022-12-10T00:50:15;11.55;;;4.67;;
37275;SDS011;23166;51.150;21.620;2022-12-10T00:52:41;4.92;;;4.45;;
37275;SDS011;23166;51.150;21.620;2022-12-10T00:55:08;6.42;;;3.45;;
37275;SDS011;23166;51.150;21.620;2022-12-10T00:57:34;13.35;;;5.60;;
37275;SDS011;23166;51.150;21.620;2022-12-10T01:00:00;7.67;;;5.15;;
37275;SDS011;23166;51.150;21.620;2022-12-10T01:02:27;13.40;;;5.95;;
37275;SDS011;23166;51.150;21.620;2022-12-10T01:04:53;4.65;;;3.55;;
37275;SDS011;23166;51.150;21.620;2022-12-10T01:07:20;8.53;;;3.08;;
37275;SDS011;23166;51.150;21.620;2022-12-10T01:09:46;1.40;;;1.30;;
37275;SDS011;23166;51.150;21.620;2022-12-10T01:12:12;6.08;;;3.80;;
37275;SDS011;23166;51.150;21.620;2022-12-10T01:14:39;7.62;;;5.20;;
37275;SDS011;23166;51.150;21.620;2022-12-10T01:19:33;3.92;;;3.10;;
37275;SDS011;23166;51.150;21.620;2022-12-10T01:22:00;6.60;;;3.80;;
37275;SDS011;23166;51.150;21.620;2022-12-10T01:24:27;4.40;;;3.87;;
37275;SDS011;23166;51.150;21.620;2022-12-10T01:26:54;5.80;;;3.83;;
37275;SDS011;23166;51.150;21.620;2022-12-10T01:29:21;6.60;;;3.75;;
37275;SDS011;23166;51.150;21.620;2022-12-10T01:31:51;8.33;;;4.47;;
37275;SDS011;23166;51.150;21.620;2022-12-10T01:34:19;3.40;;;2.97;;
37275;SDS011;23166;51.150;21.620;2022-12-10T01:36:47;5.80;;;3.08;;
37275;SDS011;23166;51.150;21.620;2022-12-10T01:39:19;3.77;;;2.90;;
37275;SDS011;23166;51.150;21.620;2022-12-10T01:41:50;7.07;;;3.30;;
37275;SDS011;23166;51.150;21.620;2022-12-10T01:46:52;8.83;;;3.57;;
37275;SDS011;23166;51.150;21.620;2022-12-10T01:49:21;3.63;;;2.43;;
37275;SDS011;23166;51.150;21.620;2022-12-10T01:51:50;3.30;;;2.97;;
37275;SDS011;23166;51.150;21.620;2022-12-10T01:54:20;8.00;;;4.10;;
37275;SDS011;23166;51.150;21.620;2022-12-10T01:56:50;4.97;;;2.93;;
37275;SDS011;23166;51.150;21.620;2022-12-10T01:59:19;7.33;;;3.87;;
37275;SDS011;23166;51.150;21.620;2022-12-10T02:12:29;2.70;;;2.23;;
37275;SDS011;23166;51.150;21.620;2022-12-10T02:14:57;2.50;;;2.03;;
37275;SDS011;23166;51.150;21.620;2022-12-10T02:17:31;4.97;;;3.70;;
37275;SDS011;23166;51.150;21.620;2022-12-10T02:22:42;3.93;;;3.47;;
37275;SDS011;23166;51.150;21.620;2022-12-10T02:25:13;3.80;;;3.43;;
37275;SDS011;23166;51.150;21.620;2022-12-10T02:27:46;3.97;;;3.27;;
37275;SDS011;23166;51.150;21.620;2022-12-10T02:30:16;9.00;;;3.40;;
37275;SDS011;23166;51.150;21.620;2022-12-10T02:32:43;6.43;;;3.50;;
37275;SDS011;23166;51.150;21.620;2022-12-10T02:35:14;5.73;;;3.87;;
37275;SDS011;23166;51.150;21.620;2022-12-10T02:37:46;4.57;;;3.17;;
37275;SDS011;23166;51.150;21.620;2022-12-10T02:40:20;4.73;;;4.27;;
37275;SDS011;23166;51.150;21.620;2022-12-10T02:42:45;6.77;;;3.53;;
37275;SDS011;23166;51.150;21.620;2022-12-10T02:45:15;6.37;;;3.77;;
37275;SDS011;23166;51.150;21.620;2022-12-10T02:47:43;5.90;;;3.23;;
37275;SDS011;23166;51.150;21.620;2022-12-10T02:50:10;4.78;;;2.35;;
37275;SDS011;23166;51.150;21.620;2022-12-10T02:52:39;5.63;;;2.30;;
37275;SDS011;23166;51.150;21.620;2022-12-10T02:55:05;2.25;;;2.05;;
37275;SDS011;23166;51.150;21.620;2022-12-10T03:00:27;7.40;;;3.13;;
37275;SDS011;23166;51.150;21.620;2022-12-10T03:08:15;8.20;;;3.47;;
37275;SDS011;23166;51.150;21.620;2022-12-10T03:13:29;8.35;;;4.22;;
37275;SDS011;23166;51.150;21.620;2022-12-10T03:15:57;3.97;;;3.57;;
37275;SDS011;23166;51.150;21.620;2022-12-10T03:18:25;3.70;;;1.93;;
37275;SDS011;23166;51.150;21.620;2022-12-10T03:20:54;6.13;;;3.47;;
37275;SDS011;23166;51.150;21.620;2022-12-10T03:23:24;5.07;;;3.30;;
37275;SDS011;23166;51.150;21.620;2022-12-10T03:25:53;6.13;;;2.10;;
37275;SDS011;23166;51.150;21.620;2022-12-10T03:28:20;3.35;;;2.45;;
37275;SDS011;23166;51.150;21.620;2022-12-10T03:30:48;5.70;;;2.53;;
37275;SDS011;23166;51.150;21.620;2022-12-10T03:35:42;11.48;;;4.28;;
37275;SDS011;23166;51.150;21.620;2022-12-10T03:38:09;7.03;;;3.53;;
37275;SDS011;23166;51.150;21.620;2022-12-10T03:40:36;7.67;;;4.22;;
37275;SDS011;23166;51.150;21.620;2022-12-10T03:43:02;8.45;;;5.30;;
37275;SDS011;23166;51.150;21.620;2022-12-10T03:45:29;4.80;;;2.80;;
37275;SDS011;23166;51.150;21.620;2022-12-10T03:47:55;4.30;;;2.30;;
37275;SDS011;23166;51.150;21.620;2022-12-10T03:50:21;11.45;;;5.87;;
37275;SDS011;23166;51.150;21.620;2022-12-10T03:52:48;7.25;;;4.22;;
37275;SDS011;23166;51.150;21.620;2022-12-10T03:55:14;5.78;;;4.87;;
37275;SDS011;23166;51.150;21.620;2022-12-10T03:57:41;8.63;;;3.95;;
37275;SDS011;23166;51.150;21.620;2022-12-10T04:00:08;5.12;;;4.37;;
37275;SDS011;23166;51.150;21.620;2022-12-10T04:02:35;10.93;;;7.23;;
37275;SDS011;23166;51.150;21.620;2022-12-10T04:05:02;5.03;;;4.53;;
37275;SDS011;23166;51.150;21.620;2022-12-10T04:07:30;13.73;;;7.87;;
37275;SDS011;23166;51.150;21.620;2022-12-10T04:09:56;11.15;;;5.30;;
37275;SDS011;23166;51.150;21.620;2022-12-10T04:12:22;10.28;;;7.62;;
37275;SDS011;23166;51.150;21.620;2022-12-10T04:14:49;5.42;;;3.47;;
37275;SDS011;23166;51.150;21.620;2022-12-10T04:17:34;6.80;;;4.00;;
37275;SDS011;23166;51.150;21.620;2022-12-10T04:20:00;6.47;;;3.92;;
37275;SDS011;23166;51.150;21.620;2022-12-10T04:22:26;8.78;;;5.05;;
37275;SDS011;23166;51.150;21.620;2022-12-10T04:25:11;10.40;;;4.57;;
37275;SDS011;23166;51.150;21.620;2022-12-10T04:27:57;8.30;;;5.20;;
37275;SDS011;23166;51.150;21.620;2022-12-10T04:30:23;11.35;;;4.87;;
37275;SDS011;23166;51.150;21.620;2022-12-10T04:32:50;8.75;;;4.83;;
37275;SDS011;23166;51.150;21.620;2022-12-10T04:35:16;7.85;;;5.35;;
37275;SDS011;23166;51.150;21.620;2022-12-10T04:37:42;9.83;;;6.58;;
37275;SDS011;23166;51.150;21.620;2022-12-10T04:40:09;17.37;;;7.70;;
37275;SDS011;23166;51.150;21.620;2022-12-10T04:45:02;9.00;;;5.97;;
37275;SDS011;23166;51.150;21.620;2022-12-10T04:47:29;14.70;;;5.25;;
37275;SDS011;23166;51.150;21.620;2022-12-10T04:49:55;6.25;;;5.47;;
37275;SDS011;23166;51.150;21.620;2022-12-10T04:52:21;7.87;;;4.65;;
37275;SDS011;23166;51.150;21.620;2022-12-10T04:54:48;4.90;;;3.12;;
37275;SDS011;23166;51.150;21.620;2022-12-10T04:57:15;5.95;;;4.10;;
37275;SDS011;23166;51.150;21.620;2022-12-10T04:59:41;4.25;;;3.55;;
37275;SDS011;23166;51.150;21.620;2022-12-10T05:02:07;10.20;;;5.78;;
37275;SDS011;23166;51.150;21.620;2022-12-10T05:04:34;13.88;;;6.40;;
37275;SDS011;23166;51.150;21.620;2022-12-10T05:07:00;8.33;;;4.45;;
37275;SDS011;23166;51.150;21.620;2022-12-10T05:09:27;7.25;;;4.83;;
37275;SDS011;23166;51.150;21.620;2022-12-10T05:11:53;10.30;;;4.67;;
37275;SDS011;23166;51.150;21.620;2022-12-10T05:14:19;10.93;;;4.53;;
37275;SDS011;23166;51.150;21.620;2022-12-10T05:16:48;16.25;;;8.28;;
37275;SDS011;23166;51.150;21.620;2022-12-10T05:19:15;6.30;;;4.33;;
37275;SDS011;23166;51.150;21.620;2022-12-10T05:21:41;13.18;;;5.20;;
37275;SDS011;23166;51.150;21.620;2022-12-10T05:24:25;5.90;;;4.57;;
37275;SDS011;23166;51.150;21.620;2022-12-10T05:26:52;4.47;;;3.85;;
37275;SDS011;23166;51.150;21.620;2022-12-10T05:29:18;16.80;;;7.22;;
37275;SDS011;23166;51.150;21.620;2022-12-10T05:31:45;8.08;;;4.87;;
37275;SDS011;23166;51.150;21.620;2022-12-10T05:34:11;9.03;;;5.30;;
37275;SDS011;23166;51.150;21.620;2022-12-10T05:36:38;12.63;;;5.30;;
37275;SDS011;23166;51.150;21.620;2022-12-10T05:39:04;5.50;;;5.00;;
37275;SDS011;23166;51.150;21.620;2022-12-10T05:41:33;8.08;;;4.55;;
37275;SDS011;23166;51.150;21.620;2022-12-10T05:44:03;10.00;;;4.93;;
37275;SDS011;23166;51.150;21.620;2022-12-10T05:46:30;10.00;;;5.60;;
37275;SDS011;23166;51.150;21.620;2022-12-10T05:48:59;7.83;;;4.90;;
37275;SDS011;23166;51.150;21.620;2022-12-10T05:51:29;7.53;;;5.20;;
37275;SDS011;23166;51.150;21.620;2022-12-10T05:53:56;10.57;;;5.70;;
37275;SDS011;23166;51.150;21.620;2022-12-10T05:56:24;7.67;;;6.33;;
37275;SDS011;23166;51.150;21.620;2022-12-10T05:58:52;9.30;;;5.87;;
37275;SDS011;23166;51.150;21.620;2022-12-10T06:01:22;15.10;;;7.43;;
37275;SDS011;23166;51.150;21.620;2022-12-10T06:03:50;7.47;;;5.00;;
37275;SDS011;23166;51.150;21.620;2022-12-10T06:06:24;8.50;;;3.63;;
37275;SDS011;23166;51.150;21.620;2022-12-10T06:08:53;7.00;;;6.13;;
37275;SDS011;23166;51.150;21.620;2022-12-10T06:13:47;10.20;;;4.53;;
37275;SDS011;23166;51.150;21.620;2022-12-10T06:16:13;8.03;;;5.20;;
37275;SDS011;23166;51.150;21.620;2022-12-10T06:18:41;10.57;;;6.23;;
37275;SDS011;23166;51.150;21.620;2022-12-10T06:21:08;9.38;;;4.58;;
37275;SDS011;23166;51.150;21.620;2022-12-10T06:23:37;13.27;;;6.70;;
37275;SDS011;23166;51.150;21.620;2022-12-10T06:26:05;9.80;;;6.60;;
37275;SDS011;23166;51.150;21.620;2022-12-10T06:28:33;10.93;;;6.73;;
37275;SDS011;23166;51.150;21.620;2022-12-10T06:31:00;6.55;;;5.22;;
37275;SDS011;23166;51.150;21.620;2022-12-10T06:33:26;8.28;;;5.75;;
37275;SDS011;23166;51.150;21.620;2022-12-10T06:35:53;6.85;;;4.47;;
37275;SDS011;23166;51.150;21.620;2022-12-10T06:38:19;8.40;;;4.37;;
37275;SDS011;23166;51.150;21.620;2022-12-10T06:40:46;7.87;;;5.37;;
37275;SDS011;23166;51.150;21.620;2022-12-10T06:43:12;6.83;;;5.58;;
37275;SDS011;23166;51.150;21.620;2022-12-10T06:45:39;6.15;;;4.45;;
37275;SDS011;23166;51.150;21.620;2022-12-10T06:48:06;7.30;;;5.37;;
37275;SDS011;23166;51.150;21.620;2022-12-10T06:50:33;7.72;;;5.30;;
37275;SDS011;23166;51.150;21.620;2022-12-10T06:53:00;7.00;;;3.65;;
37275;SDS011;23166;51.150;21.620;2022-12-10T06:55:26;6.67;;;4.47;;
37275;SDS011;23166;51.150;21.620;2022-12-10T06:57:53;8.68;;;6.20;;
37275;SDS011;23166;51.150;21.620;2022-12-10T07:00:20;13.30;;;4.15;;
37275;SDS011;23166;51.150;21.620;2022-12-10T07:05:13;5.42;;;3.30;;
37275;SDS011;23166;51.150;21.620;2022-12-10T07:07:41;4.70;;;3.37;;
37275;SDS011;23166;51.150;21.620;2022-12-10T07:10:08;10.40;;;6.30;;
37275;SDS011;23166;51.150;21.620;2022-12-10T07:12:35;6.30;;;3.53;;
37275;SDS011;23166;51.150;21.620;2022-12-10T07:15:02;7.85;;;4.60;;
37275;SDS011;23166;51.150;21.620;2022-12-10T07:17:28;7.58;;;5.58;;
37275;SDS011;23166;51.150;21.620;2022-12-10T07:19:55;4.17;;;3.47;;
37275;SDS011;23166;51.150;21.620;2022-12-10T07:22:21;3.17;;;2.27;;
37275;SDS011;23166;51.150;21.620;2022-12-10T07:24:48;5.92;;;5.25;;
37275;SDS011;23166;51.150;21.620;2022-12-10T07:27:14;4.08;;;2.17;;
37275;SDS011;23166;51.150;21.620;2022-12-10T07:29:41;8.73;;;3.80;;
37275;SDS011;23166;51.150;21.620;2022-12-10T07:32:07;7.03;;;4.70;;
37275;SDS011;23166;51.150;21.620;2022-12-10T07:34:33;9.73;;;5.87;;
37275;SDS011;23166;51.150;21.620;2022-12-10T07:37:00;3.70;;;1.60;;
37275;SDS011;23166;51.150;21.620;2022-12-10T07:39:26;5.28;;;4.55;;
37275;SDS011;23166;51.150;21.620;2022-12-10T07:41:52;11.05;;;3.67;;
37275;SDS011;23166;51.150;21.620;2022-12-10T07:44:20;11.53;;;7.05;;
37275;SDS011;23166;51.150;21.620;2022-12-10T07:46:48;6.47;;;3.97;;
37275;SDS011;23166;51.150;21.620;2022-12-10T07:49:15;4.33;;;3.87;;
37275;SDS011;23166;51.150;21.620;2022-12-10T07:51:45;7.30;;;4.90;;
37275;SDS011;23166;51.150;21.620;2022-12-10T07:54:13;6.23;;;3.20;;
37275;SDS011;23166;51.150;21.620;2022-12-10T07:56:40;15.30;;;5.27;;
37275;SDS011;23166;51.150;21.620;2022-12-10T08:01:33;6.12;;;3.17;;
37275;SDS011;23166;51.150;21.620;2022-12-10T08:03:59;10.72;;;4.55;;
37275;SDS011;23166;51.150;21.620;2022-12-10T08:06:26;6.17;;;4.00;;
37275;SDS011;23166;51.150;21.620;2022-12-10T08:08:54;6.63;;;6.03;;
37275;SDS011;23166;51.150;21.620;2022-12-10T08:11:23;6.67;;;4.83;;
37275;SDS011;23166;51.150;21.620;2022-12-10T08:13:49;2.77;;;2.50;;
37275;SDS011;23166;51.150;21.620;2022-12-10T08:16:18;8.13;;;5.47;;
37275;SDS011;23166;51.150;21.620;2022-12-10T08:18:46;5.67;;;3.37;;
37275;SDS011;23166;51.150;21.620;2022-12-10T08:21:14;6.08;;;4.03;;
37275;SDS011;23166;51.150;21.620;2022-12-10T08:23:42;8.03;;;4.77;;
37275;SDS011;23166;51.150;21.620;2022-12-10T08:26:10;8.67;;;3.67;;
37275;SDS011;23166;51.150;21.620;2022-12-10T08:28:39;10.07;;;4.03;;
37275;SDS011;23166;51.150;21.620;2022-12-10T08:31:07;10.58;;;4.37;;
37275;SDS011;23166;51.150;21.620;2022-12-10T08:33:35;8.20;;;4.13;;
37275;SDS011;23166;51.150;21.620;2022-12-10T08:36:03;9.60;;;3.90;;
37275;SDS011;23166;51.150;21.620;2022-12-10T08:38:31;10.27;;;5.80;;
37275;SDS011;23166;51.150;21.620;2022-12-10T08:40:58;5.62;;;3.85;;
37275;SDS011;23166;51.150;21.620;2022-12-10T08:43:25;3.22;;;2.62;;
37275;SDS011;23166;51.150;21.620;2022-12-10T08:45:51;7.70;;;5.55;;
37275;SDS011;23166;51.150;21.620;2022-12-10T08:48:18;7.15;;;5.30;;
37275;SDS011;23166;51.150;21.620;2022-12-10T08:50:44;12.68;;;5.67;;
37275;SDS011;23166;51.150;21.620;2022-12-10T08:53:11;11.03;;;5.58;;
37275;SDS011;23166;51.150;21.620;2022-12-10T08:55:38;7.65;;;6.60;;
37275;SDS011;23166;51.150;21.620;2022-12-10T08:58:05;5.97;;;3.20;;
37275;SDS011;23166;51.150;21.620;2022-12-10T09:00:31;13.43;;;6.05;;
37275;SDS011;23166;51.150;21.620;2022-12-10T09:02:58;16.55;;;5.55;;
37275;SDS011;23166;51.150;21.620;2022-12-10T09:05:24;8.05;;;3.98;;
37275;SDS011;23166;51.150;21.620;2022-12-10T09:07:51;7.35;;;4.47;;
37275;SDS011;23166;51.150;21.620;2022-12-10T09:10:17;11.25;;;5.20;;
37275;SDS011;23166;51.150;21.620;2022-12-10T09:12:43;6.17;;;4.72;;
37275;SDS011;23166;51.150;21.620;2022-12-10T09:15:10;9.78;;;5.80;;
37275;SDS011;23166;51.150;21.620;2022-12-10T09:17:37;6.72;;;5.78;;
37275;SDS011;23166;51.150;21.620;2022-12-10T09:20:04;9.07;;;4.77;;
37275;SDS011;23166;51.150;21.620;2022-12-10T09:22:32;8.40;;;5.20;;
37275;SDS011;23166;51.150;21.620;2022-12-10T09:25:00;4.53;;;3.20;;
37275;SDS011;23166;51.150;21.620;2022-12-10T09:27:27;5.72;;;4.55;;
37275;SDS011;23166;51.150;21.620;2022-12-10T09:29:53;9.28;;;4.67;;
37275;SDS011;23166;51.150;21.620;2022-12-10T09:32:19;5.80;;;3.87;;
37275;SDS011;23166;51.150;21.620;2022-12-10T09:34:46;11.35;;;4.05;;
37275;SDS011;23166;51.150;21.620;2022-12-10T09:37:14;10.50;;;4.43;;
37275;SDS011;23166;51.150;21.620;2022-12-10T09:39:41;5.28;;;3.22;;
37275;SDS011;23166;51.150;21.620;2022-12-10T09:48:01;10.67;;;4.70;;
37275;SDS011;23166;51.150;21.620;2022-12-10T09:50:47;4.40;;;3.83;;
37275;SDS011;23166;51.150;21.620;2022-12-10T09:52:47;5.67;;;4.47;;
37275;SDS011;23166;51.150;21.620;2022-12-10T09:55:19;16.93;;;5.80;;
37275;SDS011;23166;51.150;21.620;2022-12-10T09:57:48;4.93;;;4.30;;
37275;SDS011;23166;51.150;21.620;2022-12-10T10:00:25;9.73;;;3.83;;
37275;SDS011;23166;51.150;21.620;2022-12-10T10:02:55;11.73;;;5.70;;
37275;SDS011;23166;51.150;21.620;2022-12-10T10:05:26;10.37;;;5.80;;
37275;SDS011;23166;51.150;21.620;2022-12-10T10:07:56;11.83;;;5.90;;
37275;SDS011;23166;51.150;21.620;2022-12-10T10:10:28;7.73;;;5.23;;
37275;SDS011;23166;51.150;21.620;2022-12-10T10:12:58;14.13;;;5.57;;
37275;SDS011;23166;51.150;21.620;2022-12-10T10:15:43;6.90;;;3.30;;
37275;SDS011;23166;51.150;21.620;2022-12-10T10:21:04;12.10;;;6.17;;
37275;SDS011;23166;51.150;21.620;2022-12-10T10:23:35;10.93;;;7.67;;
37275;SDS011;23166;51.150;21.620;2022-12-10T10:26:01;12.47;;;5.10;;
37275;SDS011;23166;51.150;21.620;2022-12-10T10:28:28;9.30;;;6.47;;
37275;SDS011;23166;51.150;21.620;2022-12-10T10:30:54;8.65;;;5.60;;
37275;SDS011;23166;51.150;21.620;2022-12-10T10:35:48;10.38;;;5.65;;
37275;SDS011;23166;51.150;21.620;2022-12-10T10:38:26;9.17;;;5.67;;
37275;SDS011;23166;51.150;21.620;2022-12-10T10:40:53;12.20;;;6.43;;
37275;SDS011;23166;51.150;21.620;2022-12-10T10:43:23;8.37;;;6.53;;
37275;SDS011;23166;51.150;21.620;2022-12-10T10:45:51;11.37;;;5.83;;
37275;SDS011;23166;51.150;21.620;2022-12-10T10:48:28;6.60;;;4.22;;
37275;SDS011;23166;51.150;21.620;2022-12-10T10:50:55;14.23;;;5.30;;
37275;SDS011;23166;51.150;21.620;2022-12-10T10:53:42;7.57;;;4.37;;
37275;SDS011;23166;51.150;21.620;2022-12-10T10:58:58;13.57;;;5.10;;
37275;SDS011;23166;51.150;21.620;2022-12-10T11:01:27;7.03;;;4.07;;
37275;SDS011;23166;51.150;21.620;2022-12-10T11:04:14;10.60;;;7.30;;
37275;SDS011;23166;51.150;21.620;2022-12-10T11:06:42;9.00;;;5.30;;
37275;SDS011;23166;51.150;21.620;2022-12-10T11:09:20;7.47;;;5.50;;
37275;SDS011;23166;51.150;21.620;2022-12-10T11:11:43;11.47;;;5.00;;
37275;SDS011;23166;51.150;21.620;2022-12-10T11:14:14;7.03;;;5.53;;
37275;SDS011;23166;51.150;21.620;2022-12-10T11:16:43;6.23;;;3.97;;
37275;SDS011;23166;51.150;21.620;2022-12-10T11:19:16;6.33;;;4.40;;
37275;SDS011;23166;51.150;21.620;2022-12-10T11:21:51;10.37;;;5.63;;
37275;SDS011;23166;51.150;21.620;2022-12-10T11:24:18;9.18;;;3.70;;
37275;SDS011;23166;51.150;21.620;2022-12-10T11:29:32;6.23;;;3.03;;
37275;SDS011;23166;51.150;21.620;2022-12-10T11:41:25;16.13;;;6.10;;
37275;SDS011;23166;51.150;21.620;2022-12-10T11:51:18;7.23;;;4.43;;
37275;SDS011;23166;51.150;21.620;2022-12-10T12:01:37;10.63;;;5.97;;
37275;SDS011;23166;51.150;21.620;2022-12-10T12:17:22;9.10;;;6.47;;
37275;SDS011;23166;51.150;21.620;2022-12-10T12:19:52;10.97;;;3.97;;
37275;SDS011;23166;51.150;21.620;2022-12-10T12:24:54;13.47;;;7.10;;
37275;SDS011;23166;51.150;21.620;2022-12-10T12:27:27;5.07;;;4.27;;
37275;SDS011;23166;51.150;21.620;2022-12-10T12:30:06;11.45;;;8.25;;
37275;SDS011;23166;51.150;21.620;2022-12-10T12:32:49;10.00;;;6.20;;
37275;SDS011;23166;51.150;21.620;2022-12-10T12:35:20;9.37;;;6.07;;
37275;SDS011;23166;51.150;21.620;2022-12-10T12:37:56;13.17;;;9.07;;
37275;SDS011;23166;51.150;21.620;2022-12-10T12:40:30;16.25;;;6.35;;
37275;SDS011;23166;51.150;21.620;2022-12-10T12:43:02;8.93;;;5.67;;
37275;SDS011;23166;51.150;21.620;2022-12-10T12:45:33;9.13;;;6.13;;
37275;SDS011;23166;51.150;21.620;2022-12-10T12:53:14;9.03;;;4.60;;
37275;SDS011;23166;51.150;21.620;2022-12-10T13:01:23;9.63;;;6.17;;
37275;SDS011;23166;51.150;21.620;2022-12-10T13:03:56;8.13;;;4.13;;
37275;SDS011;23166;51.150;21.620;2022-12-10T13:06:28;5.40;;;4.20;;
37275;SDS011;23166;51.150;21.620;2022-12-10T13:11:44;8.37;;;5.77;;
37275;SDS011;23166;51.150;21.620;2022-12-10T13:14:27;5.40;;;4.87;;
37275;SDS011;23166;51.150;21.620;2022-12-10T13:17:22;5.67;;;4.17;;
37275;SDS011;23166;51.150;21.620;2022-12-10T13:20:25;5.67;;;5.00;;
37275;SDS011;23166;51.150;21.620;2022-12-10T13:22:43;19.00;;;6.17;;
37275;SDS011;23166;51.150;21.620;2022-12-10T13:25:16;11.85;;;6.30;;
37275;SDS011;23166;51.150;21.620;2022-12-10T13:30:32;8.67;;;5.13;;
37275;SDS011;23166;51.150;21.620;2022-12-10T13:33:09;10.67;;;5.00;;
37275;SDS011;23166;51.150;21.620;2022-12-10T13:35:51;12.80;;;4.90;;
37275;SDS011;23166;51.150;21.620;2022-12-10T13:38:25;8.03;;;5.17;;
37275;SDS011;23166;51.150;21.620;2022-12-10T13:40:58;13.50;;;4.03;;
37275;SDS011;23166;51.150;21.620;2022-12-10T13:43:58;9.93;;;5.07;;
37275;SDS011;23166;51.150;21.620;2022-12-10T13:49:20;4.53;;;3.77;;
37275;SDS011;23166;51.150;21.620;2022-12-10T14:00:21;6.60;;;4.03;;
37275;SDS011;23166;51.150;21.620;2022-12-10T14:08:31;9.40;;;5.83;;
37275;SDS011;23166;51.150;21.620;2022-12-10T14:10:59;6.77;;;4.80;;
37275;SDS011;23166;51.150;21.620;2022-12-10T14:13:33;4.83;;;4.00;;
37275;SDS011;23166;51.150;21.620;2022-12-10T14:16:12;10.57;;;5.37;;
37275;SDS011;23166;51.150;21.620;2022-12-10T14:18:45;11.37;;;4.53;;
37275;SDS011;23166;51.150;21.620;2022-12-10T14:21:14;8.40;;;5.53;;
37275;SDS011;23166;51.150;21.620;2022-12-10T14:23:44;13.93;;;4.97;;
37275;SDS011;23166;51.150;21.620;2022-12-10T14:26:14;14.63;;;7.17;;
37275;SDS011;23166;51.150;21.620;2022-12-10T14:28:46;9.23;;;6.60;;
37275;SDS011;23166;51.150;21.620;2022-12-10T14:31:17;18.43;;;10.23;;
37275;SDS011;23166;51.150;21.620;2022-12-10T14:33:51;18.77;;;6.83;;
37275;SDS011;23166;51.150;21.620;2022-12-10T14:36:25;22.20;;;9.97;;
37275;SDS011;23166;51.150;21.620;2022-12-10T14:38:55;7.73;;;6.03;;
37275;SDS011;23166;51.150;21.620;2022-12-10T14:41:22;13.37;;;7.43;;
37275;SDS011;23166;51.150;21.620;2022-12-10T14:43:51;13.03;;;6.43;;
37275;SDS011;23166;51.150;21.620;2022-12-10T14:46:20;26.02;;;10.93;;
37275;SDS011;23166;51.150;21.620;2022-12-10T14:48:49;20.40;;;10.27;;
37275;SDS011;23166;51.150;21.620;2022-12-10T14:51:19;20.03;;;7.20;;
37275;SDS011;23166;51.150;21.620;2022-12-10T14:53:48;26.63;;;9.70;;
37275;SDS011;23166;51.150;21.620;2022-12-10T14:56:26;11.20;;;6.87;;
37275;SDS011;23166;51.150;21.620;2022-12-10T14:58:56;14.90;;;9.70;;
37275;SDS011;23166;51.150;21.620;2022-12-10T15:01:33;18.63;;;8.33;;
37275;SDS011;23166;51.150;21.620;2022-12-10T15:04:01;16.15;;;6.62;;
37275;SDS011;23166;51.150;21.620;2022-12-10T15:06:33;17.30;;;7.77;;
37275;SDS011;23166;51.150;21.620;2022-12-10T15:09:02;29.53;;;8.10;;
37275;SDS011;23166;51.150;21.620;2022-12-10T15:11:30;18.23;;;9.83;;
37275;SDS011;23166;51.150;21.620;2022-12-10T15:14:01;11.88;;;5.95;;
37275;SDS011;23166;51.150;21.620;2022-12-10T15:21:52;26.93;;;12.17;;
37275;SDS011;23166;51.150;21.620;2022-12-10T15:24:40;21.50;;;11.73;;
37275;SDS011;23166;51.150;21.620;2022-12-10T15:27:19;33.43;;;17.33;;
37275;SDS011;23166;51.150;21.620;2022-12-10T15:29:44;18.70;;;12.13;;
37275;SDS011;23166;51.150;21.620;2022-12-10T15:32:12;21.68;;;10.53;;
37275;SDS011;23166;51.150;21.620;2022-12-10T15:34:59;15.53;;;8.13;;
37275;SDS011;23166;51.150;21.620;2022-12-10T15:37:25;23.47;;;10.83;;
37275;SDS011;23166;51.150;21.620;2022-12-10T15:39:55;21.03;;;9.00;;
37275;SDS011;23166;51.150;21.620;2022-12-10T15:45:23;21.80;;;12.30;;
37275;SDS011;23166;51.150;21.620;2022-12-10T15:47:53;14.30;;;9.17;;
37275;SDS011;23166;51.150;21.620;2022-12-10T15:50:23;7.03;;;6.27;;
37275;SDS011;23166;51.150;21.620;2022-12-10T15:52:49;21.48;;;7.75;;
37275;SDS011;23166;51.150;21.620;2022-12-10T15:55:18;15.47;;;8.03;;
37275;SDS011;23166;51.150;21.620;2022-12-10T15:57:44;16.85;;;5.20;;
37275;SDS011;23166;51.150;21.620;2022-12-10T16:00:17;16.77;;;6.47;;
37275;SDS011;23166;51.150;21.620;2022-12-10T16:05:20;12.10;;;7.77;;
37275;SDS011;23166;51.150;21.620;2022-12-10T16:07:49;10.13;;;8.13;;
37275;SDS011;23166;51.150;21.620;2022-12-10T16:10:18;10.87;;;6.33;;
37275;SDS011;23166;51.150;21.620;2022-12-10T16:12:47;11.83;;;7.57;;
37275;SDS011;23166;51.150;21.620;2022-12-10T16:15:17;19.87;;;9.87;;
37275;SDS011;23166;51.150;21.620;2022-12-10T16:17:46;18.03;;;8.53;;
37275;SDS011;23166;51.150;21.620;2022-12-10T16:22:48;9.35;;;5.28;;
37275;SDS011;23166;51.150;21.620;2022-12-10T16:25:15;15.53;;;7.13;;
37275;SDS011;23166;51.150;21.620;2022-12-10T16:27:42;18.05;;;7.00;;
37275;SDS011;23166;51.150;21.620;2022-12-10T16:30:13;21.07;;;10.58;;
37275;SDS011;23166;51.150;21.620;2022-12-10T16:32:39;14.53;;;7.73;;
37275;SDS011;23166;51.150;21.620;2022-12-10T16:35:05;12.60;;;6.67;;
37275;SDS011;23166;51.150;21.620;2022-12-10T16:37:32;4.90;;;4.42;;
37275;SDS011;23166;51.150;21.620;2022-12-10T16:39:58;11.55;;;6.35;;
37275;SDS011;23166;51.150;21.620;2022-12-10T16:42:25;19.35;;;8.60;;
37275;SDS011;23166;51.150;21.620;2022-12-10T16:44:52;9.83;;;7.73;;
37275;SDS011;23166;51.150;21.620;2022-12-10T16:47:18;24.43;;;7.58;;
37275;SDS011;23166;51.150;21.620;2022-12-10T16:49:45;21.27;;;6.08;;
37275;SDS011;23166;51.150;21.620;2022-12-10T16:52:13;20.12;;;7.70;;
37275;SDS011;23166;51.150;21.620;2022-12-10T16:54:40;17.80;;;10.20;;
37275;SDS011;23166;51.150;21.620;2022-12-10T16:57:14;21.63;;;9.27;;
37275;SDS011;23166;51.150;21.620;2022-12-10T16:59:40;22.10;;;12.20;;
37275;SDS011;23166;51.150;21.620;2022-12-10T17:02:14;19.12;;;8.73;;
37275;SDS011;23166;51.150;21.620;2022-12-10T17:04:43;7.37;;;4.43;;